EDT,Max TemperatureF,Mean TemperatureF,Min TemperatureF,Max Dew PointF,MeanDew PointF,Min DewpointF,Max Humidity, Mean Humidity, Min Humidity, Max Sea Level PressureIn, Mean Sea Level PressureIn, Min Sea Level PressureIn, Max VisibilityMiles, Mean VisibilityMiles, Min VisibilityMiles, Max Wind SpeedMPH, Mean Wind SpeedMPH, Max Gust SpeedMPH,PrecipitationIn, CloudCover, Events, WindDirDegrees
2012-9-1,84,76,69,66,59,55,87,60,44,30.12,30.08,30.02,10,10,8,8,4,,0.00,4,,95
2012-9-2,79,74,68,70,64,56,79,72,60,30.06,30.00,29.95,10,10,10,12,6,,0.00,6,,77
2012-9-3,89,76,64,70,65,57,90,70,52,29.97,29.93,29.87,10,10,6,8,5,,0.00,0,,89
2012-9-4,82,73,64,72,68,63,100,88,60,29.93,29.88,29.84,10,3,0,12,2,,0.00,6,Fog-Rain,354
2012-9-5,81,70,60,70,64,58,100,90,65,29.91,29.86,29.78,10,3,0,12,2,18,0.00,3,Fog-Rain,215
2012-9-6,87,74,63,66,62,57,96,77,37,29.93,29.87,29.82,10,7,1,12,2,,0.00,3,Thunderstorm,283
2012-9-7,93,66,51,65,56,50,100,78,42,29.91,29.83,29.69,10,7,0,13,4,18,0.11,1,Fog-Rain,244
2012-9-8,72,63,54,58,53,47,94,77,44,29.86,29.72,29.65,10,8,2,16,9,26,0.58,6,Rain,323
2012-9-9,73,56,42,50,45,42,100,80,41,30.11,29.94,29.86,10,7,1,13,2,,0.00,2,,345
2012-9-10,73,54,37,50,41,37,100,80,30,30.25,30.17,30.11,10,6,0,6,0,,0.00,0,Fog,270
2012-9-11,79,59,39,53,46,39,100,78,38,30.24,30.19,30.15,10,5,0,15,2,22,0.00,0,Fog,213
2012-9-12,84,63,42,56,48,42,100,84,35,30.25,30.21,30.16,10,5,0,14,1,26,0.00,0,Fog,218
2012-9-13,84,66,50,60,54,50,100,79,33,30.26,30.22,30.17,10,6,0,15,2,24,0.00,4,Fog,273
2012-9-14,72,60,50,59,52,42,94,78,35,30.29,30.25,30.21,10,8,2,14,8,20,0.56,5,Rain,340
2012-9-15,73,56,39,47,44,38,93,67,35,30.34,30.27,30.18,10,10,10,8,3,,0.00,0,,316
2012-9-16,77,58,41,51,45,39,100,82,36,30.17,30.12,30.03,10,5,0,13,1,81,0.00,0,Fog,222
2012-9-17,75,58,42,61,47,39,100,83,41,30.04,29.95,29.71,10,5,0,12,1,29,0.00,1,Fog-Rain,208
2012-9-18,64,54,45,63,50,34,94,74,47,29.98,29.72,29.61,10,9,5,17,8,25,0.03,5,Rain,303
2012-9-19,66,48,30,42,35,30,100,63,30,30.12,30.05,29.99,10,9,1,15,5,48,0.00,0,,219
2012-9-20,69,58,46,54,44,37,89,63,45,29.99,29.91,29.84,10,10,10,15,9,23,0.04,4,Thunderstorm,214
2012-9-21,71,54,37,50,41,35,100,79,28,29.94,29.90,29.79,10,7,1,15,2,23,0.15,2,Rain,262
2012-9-22,57,48,37,50,45,36,96,84,64,30.09,29.87,29.73,10,8,2,15,5,23,0.15,6,Rain-Thunderstorm,278
2012-9-23,59,47,37,44,38,35,100,80,47,30.23,30.16,30.10,10,7,0,12,4,17,0.00,5,Fog,284
2012-9-24,64,46,28,39,32,28,100,76,31,30.22,30.15,29.95,10,6,1,17,4,31,0.00,0,,234
2012-9-25,69,54,43,56,46,35,94,71,50,29.97,29.92,29.88,10,8,2,12,7,21,0.00,4,,212
2012-9-26,69,62,54,63,57,42,100,83,59,30.15,29.98,29.89,10,5,1,12,4,,0.00,6,Rain,209
2012-9-27,66,54,43,44,42,39,89,65,43,30.24,30.20,30.16,10,10,10,10,5,,0.00,2,,82
2012-9-28,71,56,44,48,44,41,93,68,38,30.18,30.14,30.07,10,10,10,6,1,,0.00,4,,350
2012-9-29,73,54,37,46,40,36,100,78,30,30.10,30.05,29.94,10,5,0,10,1,,0.00,1,Fog,332
2012-9-30,66,52,41,48,45,39,93,75,42,29.97,29.94,29.91,10,9,4,16,7,21,0.00,4,,23